sensor_id;sensor_type;location;lat;lon;timestamp;pressure;altitude;pressure_sealevel;temperature;humidity
48652;BME280;34442;52.362;-1.302;2023-04-23T00:00:27;98735.91;;;9.86;100.00
48652;BME280;34442;52.362;-1.302;2023-04-23T00:02:55;98730.44;;;9.81;100.00
48652;BME280;34442;52.362;-1.302;2023-04-23T00:05:26;98729.47;;;9.87;100.00
48652;BME280;34442;52.362;-1.302;2023-04-23T00:07:53;98728.66;;;9.87;100.00
48652;BME280;34442;52.362;-1.302;2023-04-23T00:10:18;98730.59;;;9.75;100.00
48652;BME280;34442;52.362;-1.302;2023-04-23T00:12:44;98721.25;;;9.77;100.00
48652;BME280;34442;52.362;-1.302;2023-04-23T00:15:11;98728.09;;;9.85;100.00
48652;BME280;34442;52.362;-1.302;2023-04-23T00:17:36;98728.03;;;9.80;100.00
48652;BME280;34442;52.362;-1.302;2023-04-23T00:20:02;98720.69;;;9.75;100.00
48652;BME280;34442;52.362;-1.302;2023-04-23T00:22:28;98713.13;;;9.89;100.00
48652;BME280;34442;52.362;-1.302;2023-04-23T00:24:53;98718.72;;;9.87;100.00
48652;BME280;34442;52.362;-1.302;2023-04-23T00:27:19;98707.03;;;9.93;100.00
48652;BME280;34442;52.362;-1.302;2023-04-23T00:29:45;98705.97;;;9.94;100.00
48652;BME280;34442;52.362;-1.302;2023-04-23T00:32:11;98697.84;;;9.89;100.00
48652;BME280;34442;52.362;-1.302;2023-04-23T00:34:36;98696.31;;;9.93;100.00
48652;BME280;34442;52.362;-1.302;2023-04-23T00:37:01;98697.38;;;9.92;100.00
48652;BME280;34442;52.362;-1.302;2023-04-23T00:39:30;98695.56;;;9.98;100.00
48652;BME280;34442;52.362;-1.302;2023-04-23T00:41:56;98690.44;;;9.97;100.00
48652;BME280;34442;52.362;-1.302;2023-04-23T00:44:24;98689.38;;;9.98;100.00
48652;BME280;34442;52.362;-1.302;2023-04-23T00:46:50;98688.91;;;10.01;100.00
48652;BME280;34442;52.362;-1.302;2023-04-23T00:49:17;98690.03;;;10.05;100.00
48652;BME280;34442;52.362;-1.302;2023-04-23T00:51:43;98686.78;;;10.03;100.00
48652;BME280;34442;52.362;-1.302;2023-04-23T00:54:08;98687.59;;;10.03;100.00
48652;BME280;34442;52.362;-1.302;2023-04-23T00:56:34;98683.13;;;10.09;100.00
48652;BME280;34442;52.362;-1.302;2023-04-23T00:58:59;98681.81;;;10.11;100.00
48652;BME280;34442;52.362;-1.302;2023-04-23T01:01:27;98675.38;;;9.95;100.00
48652;BME280;34442;52.362;-1.302;2023-04-23T01:03:52;98676.38;;;10.06;100.00
48652;BME280;34442;52.362;-1.302;2023-04-23T01:06:18;98675.63;;;10.11;100.00
48652;BME280;34442;52.362;-1.302;2023-04-23T01:08:44;98668.16;;;10.13;100.00
48652;BME280;34442;52.362;-1.302;2023-04-23T01:11:14;98667.50;;;10.06;100.00
48652;BME280;34442;52.362;-1.302;2023-04-23T01:13:41;98665.78;;;10.16;100.00
48652;BME280;34442;52.362;-1.302;2023-04-23T01:16:07;98656.09;;;10.15;100.00
48652;BME280;34442;52.362;-1.302;2023-04-23T01:18:32;98658.53;;;10.17;100.00
48652;BME280;34442;52.362;-1.302;2023-04-23T01:20:58;98665.84;;;10.22;100.00
48652;BME280;34442;52.362;-1.302;2023-04-23T01:23:24;98659.69;;;10.21;100.00
48652;BME280;34442;52.362;-1.302;2023-04-23T01:25:51;98657.47;;;10.18;100.00
48652;BME280;34442;52.362;-1.302;2023-04-23T01:28:17;98650.97;;;10.14;100.00
48652;BME280;34442;52.362;-1.302;2023-04-23T01:30:43;98649.97;;;10.20;100.00
48652;BME280;34442;52.362;-1.302;2023-04-23T01:33:10;98653.78;;;10.24;100.00
48652;BME280;34442;52.362;-1.302;2023-04-23T01:35:35;98642.84;;;10.26;100.00
48652;BME280;34442;52.362;-1.302;2023-04-23T01:38:02;98641.28;;;10.30;100.00
48652;BME280;34442;52.362;-1.302;2023-04-23T01:40:28;98637.22;;;10.27;100.00
48652;BME280;34442;52.362;-1.302;2023-04-23T01:42:55;98636.00;;;10.35;100.00
48652;BME280;34442;52.362;-1.302;2023-04-23T01:45:20;98635.94;;;10.30;100.00
48652;BME280;34442;52.362;-1.302;2023-04-23T01:47:46;98622.50;;;10.30;100.00
48652;BME280;34442;52.362;-1.302;2023-04-23T01:50:12;98632.66;;;10.28;100.00
48652;BME280;34442;52.362;-1.302;2023-04-23T01:52:38;98627.06;;;10.29;100.00
48652;BME280;34442;52.362;-1.302;2023-04-23T01:55:04;98628.75;;;10.35;100.00
48652;BME280;34442;52.362;-1.302;2023-04-23T01:57:30;98626.63;;;10.37;100.00
48652;BME280;34442;52.362;-1.302;2023-04-23T02:00:02;98625.13;;;10.47;100.00
48652;BME280;34442;52.362;-1.302;2023-04-23T02:02:32;98626.19;;;10.46;100.00
48652;BME280;34442;52.362;-1.302;2023-04-23T02:05:00;98619.75;;;10.47;100.00
48652;BME280;34442;52.362;-1.302;2023-04-23T02:07:28;98622.94;;;10.43;100.00
48652;BME280;34442;52.362;-1.302;2023-04-23T02:09:53;98619.28;;;10.50;100.00
48652;BME280;34442;52.362;-1.302;2023-04-23T02:12:19;98619.81;;;10.52;100.00
48652;BME280;34442;52.362;-1.302;2023-04-23T02:14:44;98618.44;;;10.49;100.00
48652;BME280;34442;52.362;-1.302;2023-04-23T02:17:09;98621.19;;;10.54;100.00
48652;BME280;34442;52.362;-1.302;2023-04-23T02:19:36;98616.63;;;10.55;100.00
48652;BME280;34442;52.362;-1.302;2023-04-23T02:22:02;98613.69;;;10.56;100.00
48652;BME280;34442;52.362;-1.302;2023-04-23T02:24:27;98610.78;;;10.58;100.00
48652;BME280;34442;52.362;-1.302;2023-04-23T02:26:52;98609.38;;;10.55;100.00
48652;BME280;34442;52.362;-1.302;2023-04-23T02:29:18;98608.06;;;10.36;100.00
48652;BME280;34442;52.362;-1.302;2023-04-23T02:31:43;98609.00;;;10.25;100.00
48652;BME280;34442;52.362;-1.302;2023-04-23T02:34:08;98601.75;;;10.25;100.00
48652;BME280;34442;52.362;-1.302;2023-04-23T02:36:34;98606.94;;;10.32;100.00
48652;BME280;34442;52.362;-1.302;2023-04-23T02:39:00;98601.06;;;10.35;100.00
48652;BME280;34442;52.362;-1.302;2023-04-23T02:41:26;98604.34;;;10.37;100.00
48652;BME280;34442;52.362;-1.302;2023-04-23T02:43:51;98607.03;;;10.37;100.00
48652;BME280;34442;52.362;-1.302;2023-04-23T02:46:16;98598.97;;;10.37;100.00
48652;BME280;34442;52.362;-1.302;2023-04-23T02:48:42;98598.97;;;10.37;100.00
48652;BME280;34442;52.362;-1.302;2023-04-23T02:51:10;98592.03;;;10.41;100.00
48652;BME280;34442;52.362;-1.302;2023-04-23T02:53:36;98598.97;;;10.37;100.00
48652;BME280;34442;52.362;-1.302;2023-04-23T02:56:02;98604.63;;;10.40;100.00
48652;BME280;34442;52.362;-1.302;2023-04-23T02:58:28;98604.81;;;10.34;100.00
48652;BME280;34442;52.362;-1.302;2023-04-23T03:00:53;98600.56;;;10.38;100.00
48652;BME280;34442;52.362;-1.302;2023-04-23T03:03:19;98605.69;;;10.39;100.00
48652;BME280;34442;52.362;-1.302;2023-04-23T03:05:45;98600.09;;;10.41;100.00
48652;BME280;34442;52.362;-1.302;2023-04-23T03:08:10;98598.69;;;10.38;100.00
48652;BME280;34442;52.362;-1.302;2023-04-23T03:10:36;98594.72;;;10.41;100.00
48652;BME280;34442;52.362;-1.302;2023-04-23T03:13:01;98597.63;;;10.39;100.00
48652;BME280;34442;52.362;-1.302;2023-04-23T03:15:26;98592.03;;;10.41;100.00
48652;BME280;34442;52.362;-1.302;2023-04-23T03:17:52;98591.72;;;10.37;100.00
48652;BME280;34442;52.362;-1.302;2023-04-23T03:20:18;98584.47;;;10.38;100.00
48652;BME280;34442;52.362;-1.302;2023-04-23T03:22:43;98586.88;;;10.39;100.00
48652;BME280;34442;52.362;-1.302;2023-04-23T03:25:10;98590.38;;;10.40;100.00
48652;BME280;34442;52.362;-1.302;2023-04-23T03:27:38;98592.09;;;10.46;100.00
48652;BME280;34442;52.362;-1.302;2023-04-23T03:30:05;98588.38;;;10.52;100.00
48652;BME280;34442;52.362;-1.302;2023-04-23T03:32:32;98587.31;;;10.53;100.00
48652;BME280;34442;52.362;-1.302;2023-04-23T03:34:57;98577.41;;;10.54;100.00
48652;BME280;34442;52.362;-1.302;2023-04-23T03:37:22;98586.75;;;10.73;100.00
48652;BME280;34442;52.362;-1.302;2023-04-23T03:39:48;98580.38;;;10.79;100.00
48652;BME280;34442;52.362;-1.302;2023-04-23T03:42:13;98574.78;;;10.86;100.00
48652;BME280;34442;52.362;-1.302;2023-04-23T03:44:39;98574.28;;;10.89;100.00
48652;BME280;34442;52.362;-1.302;2023-04-23T03:47:04;98570.69;;;10.78;100.00
48652;BME280;34442;52.362;-1.302;2023-04-23T03:49:29;98569.22;;;10.43;100.00
48652;BME280;34442;52.362;-1.302;2023-04-23T03:51:55;98567.97;;;10.51;100.00
48652;BME280;34442;52.362;-1.302;2023-04-23T03:54:20;98560.75;;;10.57;100.00
48652;BME280;34442;52.362;-1.302;2023-04-23T03:56:47;98568.84;;;10.35;100.00
48652;BME280;34442;52.362;-1.302;2023-04-23T03:59:12;98566.41;;;10.33;100.00
48652;BME280;34442;52.362;-1.302;2023-04-23T04:01:38;98570.13;;;10.32;100.00
48652;BME280;34442;52.362;-1.302;2023-04-23T04:04:03;98566.47;;;10.38;100.00
48652;BME280;34442;52.362;-1.302;2023-04-23T04:06:28;98563.72;;;10.33;100.00
48652;BME280;34442;52.362;-1.302;2023-04-23T04:08:55;98561.03;;;10.33;100.00
48652;BME280;34442;52.362;-1.302;2023-04-23T04:11:20;98562.66;;;10.34;100.00
48652;BME280;34442;52.362;-1.302;2023-04-23T04:13:46;98556.78;;;10.37;100.00
48652;BME280;34442;52.362;-1.302;2023-04-23T04:16:11;98548.41;;;10.56;100.00
48652;BME280;34442;52.362;-1.302;2023-04-23T04:18:36;98553.28;;;10.59;100.00
48652;BME280;34442;52.362;-1.302;2023-04-23T04:21:03;98546.56;;;10.61;100.00
48652;BME280;34442;52.362;-1.302;2023-04-23T04:23:28;98554.56;;;10.56;100.00
48652;BME280;34442;52.362;-1.302;2023-04-23T04:25:54;98550.09;;;10.62;100.00
48652;BME280;34442;52.362;-1.302;2023-04-23T04:28:22;98548.41;;;10.56;100.00
48652;BME280;34442;52.362;-1.302;2023-04-23T04:30:50;98547.66;;;10.38;100.00
48652;BME280;34442;52.362;-1.302;2023-04-23T04:33:18;98547.94;;;10.37;100.00
48652;BME280;34442;52.362;-1.302;2023-04-23T04:35:45;98543.69;;;10.41;100.00
48652;BME280;34442;52.362;-1.302;2023-04-23T04:38:11;98551.41;;;10.37;100.00
48652;BME280;34442;52.362;-1.302;2023-04-23T04:40:36;98545.47;;;10.35;100.00
48652;BME280;34442;52.362;-1.302;2023-04-23T04:43:02;98552.97;;;10.33;100.00
48652;BME280;34442;52.362;-1.302;2023-04-23T04:45:29;98557.56;;;10.33;100.00
48652;BME280;34442;52.362;-1.302;2023-04-23T04:47:55;98558.09;;;10.35;100.00
48652;BME280;34442;52.362;-1.302;2023-04-23T04:50:20;98564.16;;;10.25;100.00
48652;BME280;34442;52.362;-1.302;2023-04-23T04:52:46;98564.72;;;10.10;100.00
48652;BME280;34442;52.362;-1.302;2023-04-23T04:55:11;98562.47;;;10.24;100.00
48652;BME280;34442;52.362;-1.302;2023-04-23T04:57:37;98561.09;;;10.38;100.00
48652;BME280;34442;52.362;-1.302;2023-04-23T05:00:19;98558.22;;;10.45;100.00
48652;BME280;34442;52.362;-1.302;2023-04-23T05:02:46;98559.84;;;10.46;100.00
48652;BME280;34442;52.362;-1.302;2023-04-23T05:05:12;98564.75;;;10.32;100.00
48652;BME280;34442;52.362;-1.302;2023-04-23T05:07:38;98570.72;;;10.34;100.00
48652;BME280;34442;52.362;-1.302;2023-04-23T05:10:03;98570.97;;;10.33;100.00
48652;BME280;34442;52.362;-1.302;2023-04-23T05:12:28;98575.50;;;10.32;100.00
48652;BME280;34442;52.362;-1.302;2023-04-23T05:14:54;98578.59;;;10.24;100.00
48652;BME280;34442;52.362;-1.302;2023-04-23T05:17:19;98583.50;;;10.27;100.00
48652;BME280;34442;52.362;-1.302;2023-04-23T05:19:45;98589.94;;;10.26;100.00
48652;BME280;34442;52.362;-1.302;2023-04-23T05:22:10;98595.63;;;10.30;100.00
48652;BME280;34442;52.362;-1.302;2023-04-23T05:24:35;98602.56;;;10.26;100.00
48652;BME280;34442;52.362;-1.302;2023-04-23T05:27:01;98609.31;;;10.11;100.00
48652;BME280;34442;52.362;-1.302;2023-04-23T05:29:26;98602.91;;;10.12;100.00
48652;BME280;34442;52.362;-1.302;2023-04-23T05:31:52;98610.63;;;10.09;100.00
48652;BME280;34442;52.362;-1.302;2023-04-23T05:34:17;98605.16;;;10.04;100.00
48652;BME280;34442;52.362;-1.302;2023-04-23T05:36:43;98613.53;;;10.07;100.00
48652;BME280;34442;52.362;-1.302;2023-04-23T05:39:08;98610.38;;;10.10;100.00
48652;BME280;34442;52.362;-1.302;2023-04-23T05:41:34;98611.50;;;10.14;100.00
48652;BME280;34442;52.362;-1.302;2023-04-23T05:43:59;98614.13;;;10.09;100.00
48652;BME280;34442;52.362;-1.302;2023-04-23T05:46:25;98614.13;;;10.09;100.00
48652;BME280;34442;52.362;-1.302;2023-04-23T05:48:50;98617.28;;;10.06;100.00
48652;BME280;34442;52.362;-1.302;2023-04-23T05:51:15;98625.94;;;10.08;100.00
48652;BME280;34442;52.362;-1.302;2023-04-23T05:53:41;98626.56;;;9.99;100.00
48652;BME280;34442;52.362;-1.302;2023-04-23T05:56:06;98626.56;;;9.99;100.00
48652;BME280;34442;52.362;-1.302;2023-04-23T05:58:32;98620.72;;;10.02;100.00
48652;BME280;34442;52.362;-1.302;2023-04-23T06:00:57;98619.72;;;10.08;100.00
48652;BME280;34442;52.362;-1.302;2023-04-23T06:03:23;98623.81;;;10.10;100.00
48652;BME280;34442;52.362;-1.302;2023-04-23T06:05:48;98626.00;;;10.13;100.00
48652;BME280;34442;52.362;-1.302;2023-04-23T06:08:14;98631.03;;;10.10;100.00
48652;BME280;34442;52.362;-1.302;2023-04-23T06:10:39;98623.72;;;10.05;100.00
48652;BME280;34442;52.362;-1.302;2023-04-23T06:13:05;98638.22;;;10.04;100.00
48652;BME280;34442;52.362;-1.302;2023-04-23T06:15:30;98640.59;;;10.01;100.00
48652;BME280;34442;52.362;-1.302;2023-04-23T06:17:56;98628.44;;;9.98;100.00
48652;BME280;34442;52.362;-1.302;2023-04-23T06:20:21;98629.97;;;10.11;100.00
48652;BME280;34442;52.362;-1.302;2023-04-23T06:22:47;98632.13;;;10.09;100.00
48652;BME280;34442;52.362;-1.302;2023-04-23T06:25:15;98636.25;;;10.00;100.00
48652;BME280;34442;52.362;-1.302;2023-04-23T06:27:41;98632.59;;;10.06;100.00
48652;BME280;34442;52.362;-1.302;2023-04-23T06:30:06;98624.59;;;10.11;100.00
48652;BME280;34442;52.362;-1.302;2023-04-23T06:32:32;98630.63;;;10.18;100.00
48652;BME280;34442;52.362;-1.302;2023-04-23T06:34:58;98634.69;;;10.04;100.00
48652;BME280;34442;52.362;-1.302;2023-04-23T06:37:23;98643.69;;;9.92;100.00
48652;BME280;34442;52.362;-1.302;2023-04-23T06:39:52;98646.09;;;9.94;100.00
48652;BME280;34442;52.362;-1.302;2023-04-23T06:42:18;98645.94;;;10.01;100.00
48652;BME280;34442;52.362;-1.302;2023-04-23T06:44:43;98646.56;;;10.08;100.00
48652;BME280;34442;52.362;-1.302;2023-04-23T06:47:10;98652.78;;;9.91;100.00
48652;BME280;34442;52.362;-1.302;2023-04-23T06:49:36;98651.72;;;9.92;100.00
48652;BME280;34442;52.362;-1.302;2023-04-23T06:52:01;98647.81;;;9.83;100.00
48652;BME280;34442;52.362;-1.302;2023-04-23T06:54:27;98644.81;;;9.80;100.00
48652;BME280;34442;52.362;-1.302;2023-04-23T06:56:52;98640.34;;;9.85;100.00
48652;BME280;34442;52.362;-1.302;2023-04-23T06:59:18;98646.44;;;9.81;100.00
48652;BME280;34442;52.362;-1.302;2023-04-23T07:01:43;98643.50;;;9.82;100.00
48652;BME280;34442;52.362;-1.302;2023-04-23T07:04:09;98652.56;;;9.76;100.00
48652;BME280;34442;52.362;-1.302;2023-04-23T07:06:34;98649.53;;;9.89;100.00
48652;BME280;34442;52.362;-1.302;2023-04-23T07:09:00;98649.84;;;9.93;100.00
48652;BME280;34442;52.362;-1.302;2023-04-23T07:11:26;98639.78;;;10.00;100.00
48652;BME280;34442;52.362;-1.302;2023-04-23T07:13:51;98642.63;;;9.93;100.00
48652;BME280;34442;52.362;-1.302;2023-04-23T07:16:16;98648.78;;;9.94;100.00
48652;BME280;34442;52.362;-1.302;2023-04-23T07:18:42;98649.44;;;10.01;100.00
48652;BME280;34442;52.362;-1.302;2023-04-23T07:21:07;98650.25;;;10.02;100.00
48652;BME280;34442;52.362;-1.302;2023-04-23T07:23:33;98657.19;;;9.98;100.00
48652;BME280;34442;52.362;-1.302;2023-04-23T07:25:58;98662.69;;;9.91;100.00
48652;BME280;34442;52.362;-1.302;2023-04-23T07:28:23;98661.41;;;9.93;100.00
48652;BME280;34442;52.362;-1.302;2023-04-23T07:30:49;98673.03;;;9.99;100.00
48652;BME280;34442;52.362;-1.302;2023-04-23T07:33:14;98664.47;;;10.19;100.00
48652;BME280;34442;52.362;-1.302;2023-04-23T07:35:40;98663.53;;;10.25;100.00
48652;BME280;34442;52.362;-1.302;2023-04-23T07:38:05;98669.28;;;10.34;100.00
48652;BME280;34442;52.362;-1.302;2023-04-23T07:40:31;98668.88;;;10.42;100.00
48652;BME280;34442;52.362;-1.302;2023-04-23T07:42:56;98656.78;;;10.44;100.00
48652;BME280;34442;52.362;-1.302;2023-04-23T07:45:23;98654.63;;;10.41;100.00
48652;BME280;34442;52.362;-1.302;2023-04-23T07:47:49;98663.66;;;10.35;100.00
48652;BME280;34442;52.362;-1.302;2023-04-23T07:50:14;98663.16;;;10.38;100.00
48652;BME280;34442;52.362;-1.302;2023-04-23T07:52:39;98664.25;;;10.37;100.00
48652;BME280;34442;52.362;-1.302;2023-04-23T07:55:06;98665.97;;;10.27;100.00
48652;BME280;34442;52.362;-1.302;2023-04-23T07:57:32;98667.72;;;10.21;100.00
48652;BME280;34442;52.362;-1.302;2023-04-23T07:59:57;98677.16;;;10.24;100.00
48652;BME280;34442;52.362;-1.302;2023-04-23T08:02:23;98675.16;;;10.31;100.00
48652;BME280;34442;52.362;-1.302;2023-04-23T08:04:51;98674.13;;;10.20;100.00
48652;BME280;34442;52.362;-1.302;2023-04-23T08:07:17;98673.25;;;10.14;100.00
48652;BME280;34442;52.362;-1.302;2023-04-23T08:09:42;98670.66;;;10.19;100.00
48652;BME280;34442;52.362;-1.302;2023-04-23T08:12:08;98671.16;;;10.33;100.00
48652;BME280;34442;52.362;-1.302;2023-04-23T08:14:33;98677.72;;;10.42;100.00
48652;BME280;34442;52.362;-1.302;2023-04-23T08:16:59;98683.44;;;10.68;100.00
48652;BME280;34442;52.362;-1.302;2023-04-23T08:19:24;98680.31;;;10.98;100.00
48652;BME280;34442;52.362;-1.302;2023-04-23T08:21:50;98673.84;;;11.21;100.00
48652;BME280;34442;52.362;-1.302;2023-04-23T08:24:16;98682.63;;;11.38;100.00
48652;BME280;34442;52.362;-1.302;2023-04-23T08:26:42;98682.69;;;11.43;100.00
48652;BME280;34442;52.362;-1.302;2023-04-23T08:29:07;98685.19;;;11.50;100.00
48652;BME280;34442;52.362;-1.302;2023-04-23T08:31:32;98678.94;;;11.45;100.00
48652;BME280;34442;52.362;-1.302;2023-04-23T08:33:58;98679.63;;;11.62;100.00
48652;BME280;34442;52.362;-1.302;2023-04-23T08:36:23;98684.72;;;11.58;100.00
48652;BME280;34442;52.362;-1.302;2023-04-23T08:38:50;98686.13;;;11.39;100.00
48652;BME280;34442;52.362;-1.302;2023-04-23T08:41:17;98682.03;;;11.58;100.00
48652;BME280;34442;52.362;-1.302;2023-04-23T08:46:27;98695.75;;;11.84;100.00
48652;BME280;34442;52.362;-1.302;2023-04-23T08:48:57;98691.72;;;11.86;100.00
48652;BME280;34442;52.362;-1.302;2023-04-23T08:51:25;98698.69;;;12.14;100.00
48652;BME280;34442;52.362;-1.302;2023-04-23T08:53:55;98700.81;;;12.12;100.00
48652;BME280;34442;52.362;-1.302;2023-04-23T08:56:23;98697.09;;;11.59;100.00
48652;BME280;34442;52.362;-1.302;2023-04-23T08:58:49;98691.41;;;11.56;100.00
48652;BME280;34442;52.362;-1.302;2023-04-23T09:01:16;98692.63;;;11.70;100.00
48652;BME280;34442;52.362;-1.302;2023-04-23T09:03:41;98690.59;;;11.55;100.00
48652;BME280;34442;52.362;-1.302;2023-04-23T09:06:07;98692.16;;;11.78;100.00
48652;BME280;34442;52.362;-1.302;2023-04-23T09:08:33;98697.78;;;11.77;100.00
48652;BME280;34442;52.362;-1.302;2023-04-23T09:11:00;98691.97;;;11.85;100.00
48652;BME280;34442;52.362;-1.302;2023-04-23T09:13:27;98692.25;;;11.83;100.00
48652;BME280;34442;52.362;-1.302;2023-04-23T09:15:53;98698.47;;;11.89;100.00
48652;BME280;34442;52.362;-1.302;2023-04-23T09:18:19;98695.50;;;11.85;100.00
48652;BME280;34442;52.362;-1.302;2023-04-23T09:20:45;98695.66;;;12.06;100.00
48652;BME280;34442;52.362;-1.302;2023-04-23T09:23:13;98698.56;;;12.36;100.00
48652;BME280;34442;52.362;-1.302;2023-04-23T09:25:39;98704.69;;;12.69;100.00
48652;BME280;34442;52.362;-1.302;2023-04-23T09:28:06;98701.91;;;12.59;100.00
48652;BME280;34442;52.362;-1.302;2023-04-23T09:30:38;98700.13;;;12.27;100.00
48652;BME280;34442;52.362;-1.302;2023-04-23T09:33:04;98696.38;;;11.96;100.00
48652;BME280;34442;52.362;-1.302;2023-04-23T09:35:31;98698.38;;;11.79;100.00
48652;BME280;34442;52.362;-1.302;2023-04-23T09:38:00;98704.13;;;11.87;100.00
48652;BME280;34442;52.362;-1.302;2023-04-23T09:40:29;98693.78;;;11.79;100.00
48652;BME280;34442;52.362;-1.302;2023-04-23T09:42:55;98706.97;;;11.81;100.00
48652;BME280;34442;52.362;-1.302;2023-04-23T09:45:21;98701.22;;;11.67;100.00
48652;BME280;34442;52.362;-1.302;2023-04-23T09:50:13;98704.78;;;12.05;100.00
48652;BME280;34442;52.362;-1.302;2023-04-23T09:52:39;98698.34;;;12.06;100.00
48652;BME280;34442;52.362;-1.302;2023-04-23T09:55:06;98699.13;;;12.38;100.00
48652;BME280;34442;52.362;-1.302;2023-04-23T09:57:44;98695.06;;;12.36;100.00
48652;BME280;34442;52.362;-1.302;2023-04-23T10:00:16;98702.91;;;12.42;100.00
48652;BME280;34442;52.362;-1.302;2023-04-23T10:02:50;98687.84;;;12.47;100.00
48652;BME280;34442;52.362;-1.302;2023-04-23T10:05:17;98696.25;;;12.13;100.00
48652;BME280;34442;52.362;-1.302;2023-04-23T10:07:44;98681.81;;;12.29;100.00
48652;BME280;34442;52.362;-1.302;2023-04-23T10:10:19;98686.31;;;12.61;100.00
48652;BME280;34442;52.362;-1.302;2023-04-23T10:12:45;98688.78;;;13.35;100.00
48652;BME280;34442;52.362;-1.302;2023-04-23T10:15:11;98678.81;;;13.51;100.00
48652;BME280;34442;52.362;-1.302;2023-04-23T10:17:38;98684.19;;;13.36;100.00
48652;BME280;34442;52.362;-1.302;2023-04-23T10:20:06;98684.44;;;13.24;100.00
48652;BME280;34442;52.362;-1.302;2023-04-23T10:22:32;98691.47;;;13.25;100.00
48652;BME280;34442;52.362;-1.302;2023-04-23T10:25:04;98692.22;;;13.21;100.00
48652;BME280;34442;52.362;-1.302;2023-04-23T10:27:36;98687.56;;;13.01;100.00
48652;BME280;34442;52.362;-1.302;2023-04-23T10:30:04;98688.59;;;12.84;100.00
48652;BME280;34442;52.362;-1.302;2023-04-23T10:32:30;98696.78;;;13.10;100.00
48652;BME280;34442;52.362;-1.302;2023-04-23T10:34:57;98687.22;;;13.80;100.00
48652;BME280;34442;52.362;-1.302;2023-04-23T10:37:23;98689.91;;;13.90;100.00
48652;BME280;34442;52.362;-1.302;2023-04-23T10:39:53;98681.28;;;13.94;100.00
48652;BME280;34442;52.362;-1.302;2023-04-23T10:42:19;98687.50;;;13.94;100.00
48652;BME280;34442;52.362;-1.302;2023-04-23T10:44:45;98683.44;;;14.22;100.00
48652;BME280;34442;52.362;-1.302;2023-04-23T10:47:12;98689.94;;;13.96;100.00
48652;BME280;34442;52.362;-1.302;2023-04-23T10:49:38;98686.66;;;13.43;100.00
48652;BME280;34442;52.362;-1.302;2023-04-23T10:52:07;98672.06;;;13.33;100.00
48652;BME280;34442;52.362;-1.302;2023-04-23T10:54:34;98685.28;;;13.45;100.00
48652;BME280;34442;52.362;-1.302;2023-04-23T10:57:02;98684.69;;;13.23;100.00
48652;BME280;34442;52.362;-1.302;2023-04-23T10:59:29;98682.34;;;12.79;100.00
48652;BME280;34442;52.362;-1.302;2023-04-23T11:01:56;98687.44;;;12.75;100.00
48652;BME280;34442;52.362;-1.302;2023-04-23T11:04:26;98689.34;;;12.75;100.00
48652;BME280;34442;52.362;-1.302;2023-04-23T11:07:05;98686.78;;;13.00;100.00
48652;BME280;34442;52.362;-1.302;2023-04-23T11:09:38;98690.88;;;13.18;100.00
48652;BME280;34442;52.362;-1.302;2023-04-23T11:12:06;98683.22;;;12.95;100.00
48652;BME280;34442;52.362;-1.302;2023-04-23T11:14:51;98675.97;;;13.00;100.00
48652;BME280;34442;52.362;-1.302;2023-04-23T11:20:12;98676.19;;;12.88;100.00
48652;BME280;34442;52.362;-1.302;2023-04-23T11:22:38;98675.59;;;12.76;100.00
48652;BME280;34442;52.362;-1.302;2023-04-23T11:25:08;98674.63;;;12.98;100.00
48652;BME280;34442;52.362;-1.302;2023-04-23T11:27:41;98671.84;;;12.87;100.00
48652;BME280;34442;52.362;-1.302;2023-04-23T11:30:19;98685.59;;;12.76;100.00
48652;BME280;34442;52.362;-1.302;2023-04-23T11:32:45;98686.28;;;12.56;100.00
48652;BME280;34442;52.362;-1.302;2023-04-23T11:35:16;98681.78;;;12.72;100.00
48652;BME280;34442;52.362;-1.302;2023-04-23T11:37:43;98683.16;;;12.79;100.00
48652;BME280;34442;52.362;-1.302;2023-04-23T11:40:11;98683.50;;;12.93;100.00
48652;BME280;34442;52.362;-1.302;2023-04-23T11:42:51;98682.75;;;13.13;100.00
48652;BME280;34442;52.362;-1.302;2023-04-23T11:45:25;98683.81;;;13.07;100.00
48652;BME280;34442;52.362;-1.302;2023-04-23T11:47:52;98692.47;;;13.19;100.00
48652;BME280;34442;52.362;-1.302;2023-04-23T11:50:28;98686.06;;;13.30;100.00
48652;BME280;34442;52.362;-1.302;2023-04-23T11:52:55;98680.19;;;13.54;100.00
48652;BME280;34442;52.362;-1.302;2023-04-23T11:55:21;98690.19;;;13.63;100.00
48652;BME280;34442;52.362;-1.302;2023-04-23T11:57:51;98689.84;;;13.29;100.00
48652;BME280;34442;52.362;-1.302;2023-04-23T12:00:24;98687.59;;;13.16;100.00
48652;BME280;34442;52.362;-1.302;2023-04-23T12:03:01;98690.38;;;13.31;100.00
48652;BME280;34442;52.362;-1.302;2023-04-23T12:05:31;98690.97;;;13.49;100.00
48652;BME280;34442;52.362;-1.302;2023-04-23T12:08:14;98682.88;;;13.74;100.00
48652;BME280;34442;52.362;-1.302;2023-04-23T12:10:48;98686.94;;;13.56;100.00
48652;BME280;34442;52.362;-1.302;2023-04-23T12:13:22;98687.22;;;14.01;100.00
48652;BME280;34442;52.362;-1.302;2023-04-23T12:15:50;98683.19;;;13.93;100.00
48652;BME280;34442;52.362;-1.302;2023-04-23T12:18:16;98686.69;;;13.63;100.00
48652;BME280;34442;52.362;-1.302;2023-04-23T12:20:42;98681.25;;;13.53;100.00
48652;BME280;34442;52.362;-1.302;2023-04-23T12:23:08;98685.59;;;13.59;100.00
48652;BME280;34442;52.362;-1.302;2023-04-23T12:25:34;98688.81;;;13.46;100.00
48652;BME280;34442;52.362;-1.302;2023-04-23T12:28:01;98687.69;;;13.26;100.00
48652;BME280;34442;52.362;-1.302;2023-04-23T12:30:32;98695.59;;;12.80;100.00
48652;BME280;34442;52.362;-1.302;2023-04-23T12:33:01;98704.06;;;13.09;100.00
48652;BME280;34442;52.362;-1.302;2023-04-23T12:35:44;98697.06;;;13.13;100.00
48652;BME280;34442;52.362;-1.302;2023-04-23T12:38:23;98699.56;;;13.30;100.00
48652;BME280;34442;52.362;-1.302;2023-04-23T12:40:51;98697.06;;;13.19;100.00
48652;BME280;34442;52.362;-1.302;2023-04-23T12:43:16;98701.47;;;13.35;100.00
48652;BME280;34442;52.362;-1.302;2023-04-23T12:45:42;98697.44;;;13.43;100.00